Time;durP1;ratioP1;P1;durP2;ratioP2;P2;SDS_P1;SDS_P2;PMS_P1;PMS_P2;Temp;Humidity;BMP_temperature;BMP_pressure;BME280_temperature;BME280_humidity;BME280_pressure;Samples;Min_cycle;Max_cycle;Signal;HPM_P1;HPM_P2
2023/10/30 00:01:18;;;;;;;2.87;1.70;;;12.50;30.40;;;;;;4993484;28;20205;-68
2023/10/30 00:03:44;;;;;;;5.97;2.30;;;12.60;30.20;;;;;;4992464;28;20250;-67
2023/10/30 00:06:10;;;;;;;2.40;1.53;;;12.50;30.00;;;;;;4992229;28;20216;-68
2023/10/30 00:08:35;;;;;;;3.00;2.27;;;12.50;30.00;;;;;;4992050;28;20517;-69
2023/10/30 00:11:01;;;;;;;2.77;1.60;;;12.50;30.40;;;;;;4993152;28;20269;-69
2023/10/30 00:13:26;;;;;;;3.10;1.80;;;12.50;30.20;;;;;;4992071;28;20317;-68
2023/10/30 00:15:52;;;;;;;3.10;1.90;;;12.60;30.30;;;;;;4992243;28;20181;-67
2023/10/30 00:18:17;;;;;;;2.27;1.53;;;12.60;29.20;;;;;;4993293;28;20289;-68
2023/10/30 00:20:43;;;;;;;3.70;2.13;;;12.50;29.50;;;;;;4993006;28;20267;-68
2023/10/30 00:23:08;;;;;;;2.87;1.40;;;12.40;31.40;;;;;;4991948;28;20177;-68
2023/10/30 00:25:34;;;;;;;3.67;1.77;;;12.40;31.00;;;;;;4991886;28;20646;-68
2023/10/30 00:28:00;;;;;;;5.07;1.87;;;12.40;33.10;;;;;;4992099;28;20589;-68
2023/10/30 00:30:29;;;;;;;2.30;1.50;;;12.40;32.10;;;;;;4991497;28;20542;-69
2023/10/30 00:32:54;;;;;;;2.50;1.40;;;12.30;31.20;;;;;;4992926;28;20283;-68
2023/10/30 00:35:20;;;;;;;2.47;2.03;;;12.30;32.10;;;;;;4991645;28;20511;-69
2023/10/30 00:37:45;;;;;;;2.63;1.30;;;12.30;33.00;;;;;;4992912;28;20200;-69
2023/10/30 00:40:12;;;;;;;3.10;1.93;;;12.30;32.50;;;;;;4991385;28;20266;-68
2023/10/30 00:42:38;;;;;;;2.10;1.40;;;12.20;32.00;;;;;;4991762;28;20184;-69
2023/10/30 00:45:06;;;;;;;2.53;1.30;;;12.10;32.80;;;;;;4991652;28;20424;-69
2023/10/30 00:47:34;;;;;;;3.10;1.60;;;12.10;35.10;;;;;;4992903;28;20221;-68
2023/10/30 00:50:00;;;;;;;2.27;1.57;;;12.00;34.80;;;;;;4992544;28;20420;-68
2023/10/30 00:52:25;;;;;;;4.00;1.70;;;11.90;36.00;;;;;;4991543;28;20506;-69
2023/10/30 00:54:51;;;;;;;4.00;1.60;;;11.90;36.00;;;;;;4993018;28;20203;-68
2023/10/30 00:57:16;;;;;;;2.00;1.20;;;11.80;35.60;;;;;;4991289;28;20657;-68
2023/10/30 00:59:42;;;;;;;2.20;1.20;;;11.60;36.50;;;;;;4992360;28;20169;-68
2023/10/30 01:02:07;;;;;;;2.30;1.70;;;11.50;38.30;;;;;;4992796;28;20256;-69
2023/10/30 01:04:33;;;;;;;2.00;1.20;;;11.50;38.40;;;;;;4991150;28;20742;-68
2023/10/30 01:06:58;;;;;;;2.57;1.30;;;11.50;39.10;;;;;;4991583;28;20175;-68
2023/10/30 01:09:24;;;;;;;3.07;1.47;;;11.40;38.80;;;;;;5032655;23;20308;-68
2023/10/30 01:11:49;;;;;;;2.70;1.70;;;11.40;38.00;;;;;;5010958;28;20180;-68
2023/10/30 01:14:15;;;;;;;2.47;1.57;;;11.30;39.90;;;;;;5012235;28;20501;-68
2023/10/30 01:16:40;;;;;;;2.63;1.50;;;11.20;40.90;;;;;;5012224;28;20188;-68
2023/10/30 01:19:06;;;;;;;3.63;1.80;;;11.10;42.30;;;;;;4998801;28;20500;-68
2023/10/30 01:21:33;;;;;;;2.47;1.77;;;11.00;41.90;;;;;;4992609;28;20196;-68
2023/10/30 01:23:59;;;;;;;3.50;1.77;;;10.90;42.90;;;;;;4991171;28;20660;-68
2023/10/30 01:26:25;;;;;;;3.57;2.10;;;10.90;44.40;;;;;;4992628;28;20444;-68
2023/10/30 01:28:50;;;;;;;3.17;1.93;;;10.90;44.60;;;;;;4992640;28;20972;-68
2023/10/30 01:31:16;;;;;;;2.80;1.80;;;10.80;43.70;;;;;;4992496;28;20645;-68
2023/10/30 01:33:41;;;;;;;2.40;1.37;;;10.70;44.30;;;;;;4992308;28;20209;-69
2023/10/30 01:36:08;;;;;;;2.57;1.50;;;10.70;44.50;;;;;;4992464;28;20177;-68
2023/10/30 01:38:33;;;;;;;4.80;2.30;;;10.60;44.80;;;;;;4991305;28;20254;-68
2023/10/30 01:40:59;;;;;;;2.50;1.73;;;10.60;45.70;;;;;;4991511;28;20700;-68
2023/10/30 01:43:29;;;;;;;2.33;1.70;;;10.60;44.50;;;;;;4992791;28;20203;-68
2023/10/30 01:45:55;;;;;;;3.10;2.13;;;10.60;45.00;;;;;;4993412;28;20585;-68
2023/10/30 01:48:20;;;;;;;2.70;1.53;;;10.50;45.00;;;;;;4992931;28;20485;-69
2023/10/30 01:50:48;;;;;;;3.00;1.60;;;10.40;44.70;;;;;;4992662;28;20176;-70
2023/10/30 01:53:19;;;;;;;2.40;1.63;;;10.40;43.10;;;;;;4992634;28;20295;-69
2023/10/30 01:55:45;;;;;;;3.23;2.20;;;10.20;44.00;;;;;;4993416;28;20469;-69
2023/10/30 01:58:11;;;;;;;5.67;2.53;;;10.20;43.80;;;;;;4992723;28;21030;-68
2023/10/30 02:00:38;;;;;;;3.10;1.43;;;10.20;44.50;;;;;;4991277;28;20782;-69
2023/10/30 02:03:03;;;;;;;4.43;2.07;;;10.10;44.00;;;;;;4992949;28;20482;-70
2023/10/30 02:05:29;;;;;;;3.17;2.00;;;10.00;43.20;;;;;;4992389;28;20432;-70
2023/10/30 02:07:55;;;;;;;2.60;2.00;;;10.00;43.70;;;;;;4992121;28;20703;-69
2023/10/30 02:10:20;;;;;;;2.30;1.70;;;9.90;45.90;;;;;;5007193;28;20246;-70
2023/10/30 02:12:52;;;;;;;4.50;2.30;;;9.90;45.20;;;;;;4992700;28;20212;-69
2023/10/30 02:15:17;;;;;;;4.30;2.00;;;9.80;45.10;;;;;;4993443;28;20211;-69
2023/10/30 02:17:44;;;;;;;3.43;2.23;;;9.80;44.60;;;;;;4995666;28;20461;-70
2023/10/30 02:20:11;;;;;;;4.40;2.23;;;9.60;46.60;;;;;;4996270;28;20416;-69
2023/10/30 02:22:37;;;;;;;5.63;1.70;;;9.70;47.50;;;;;;4995722;28;20433;-68
2023/10/30 02:25:04;;;;;;;2.90;2.00;;;9.60;46.10;;;;;;4995666;28;20422;-68
2023/10/30 02:27:30;;;;;;;3.50;2.20;;;9.50;46.20;;;;;;4995919;28;20541;-68
2023/10/30 02:29:55;;;;;;;3.43;1.83;;;9.50;46.90;;;;;;4995570;28;20468;-68
2023/10/30 02:32:21;;;;;;;3.03;1.90;;;9.50;48.50;;;;;;4995637;28;20184;-68
2023/10/30 02:34:46;;;;;;;3.00;1.80;;;9.50;47.10;;;;;;4996023;28;20180;-69
2023/10/30 02:37:12;;;;;;;3.07;1.80;;;9.50;48.20;;;;;;4995661;28;20179;-68
2023/10/30 02:39:37;;;;;;;3.67;1.90;;;9.40;46.80;;;;;;4995301;28;20208;-68
2023/10/30 02:42:04;;;;;;;2.93;2.27;;;9.40;48.20;;;;;;4995615;28;20177;-69
2023/10/30 02:44:30;;;;;;;4.93;2.90;;;9.30;48.80;;;;;;4996273;28;20231;-68
2023/10/30 02:46:56;;;;;;;2.70;2.20;;;9.30;48.30;;;;;;4995697;28;20415;-68
2023/10/30 02:49:22;;;;;;;3.17;1.93;;;9.20;47.50;;;;;;4994395;28;20560;-68
2023/10/30 02:51:48;;;;;;;3.93;2.20;;;9.20;47.90;;;;;;4996188;28;20518;-68
2023/10/30 02:54:14;;;;;;;4.10;2.67;;;9.10;48.30;;;;;;4995775;28;20457;-68
2023/10/30 02:56:40;;;;;;;3.23;2.47;;;9.10;49.80;;;;;;4995706;28;20783;-68
2023/10/30 02:59:06;;;;;;;4.73;2.20;;;9.10;49.50;;;;;;4995206;28;20192;-68
2023/10/30 03:08:15;;;;;;;3.27;2.43;;;9.10;51.10;;;;;;4995416;28;20458;-68
2023/10/30 03:10:40;;;;;;;3.53;2.60;;;9.10;50.10;;;;;;4995684;28;20411;-69
2023/10/30 03:13:06;;;;;;;3.63;2.77;;;9.10;49.50;;;;;;4995686;28;20218;-68
2023/10/30 03:15:31;;;;;;;7.40;3.73;;;9.10;49.10;;;;;;4995600;28;20180;-68
2023/10/30 03:17:57;;;;;;;6.97;5.27;;;9.10;50.60;;;;;;4995232;28;20219;-69
2023/10/30 03:20:22;;;;;;;5.43;4.27;;;9.10;51.60;;;;;;4994563;28;20174;-68
2023/10/30 03:22:48;;;;;;;6.33;4.10;;;9.20;50.80;;;;;;4994907;28;20266;-69
2023/10/30 03:25:14;;;;;;;8.13;4.80;;;9.20;51.60;;;;;;4993674;28;20183;-69
2023/10/30 03:27:39;;;;;;;9.20;5.20;;;9.20;51.70;;;;;;4994954;28;20179;-69
2023/10/30 03:30:06;;;;;;;9.03;5.57;;;9.20;51.60;;;;;;4994533;28;20795;-69
2023/10/30 03:32:32;;;;;;;9.07;5.83;;;9.20;51.40;;;;;;4993368;28;20208;-69
2023/10/30 03:34:59;;;;;;;10.97;5.73;;;9.30;51.80;;;;;;4994468;28;20411;-69
2023/10/30 03:37:24;;;;;;;8.90;7.20;;;9.30;51.80;;;;;;4993326;28;20184;-69
2023/10/30 03:39:50;;;;;;;8.47;6.33;;;9.30;51.70;;;;;;4994156;28;21038;-69
2023/10/30 03:42:15;;;;;;;9.43;6.50;;;9.20;50.40;;;;;;4992979;28;20187;-69
2023/10/30 03:44:41;;;;;;;8.07;5.67;;;9.30;49.60;;;;;;4994559;28;20523;-70
2023/10/30 03:47:06;;;;;;;9.40;6.40;;;9.20;48.60;;;;;;4994680;28;20218;-69
2023/10/30 03:49:32;;;;;;;8.13;5.63;;;9.10;49.40;;;;;;4994283;28;20204;-69
2023/10/30 03:51:57;;;;;;;9.40;6.80;;;9.10;49.70;;;;;;4992977;28;20259;-68
2023/10/30 03:54:23;;;;;;;8.07;5.13;;;9.00;48.90;;;;;;4994062;28;20210;-68
2023/10/30 03:56:48;;;;;;;8.33;5.23;;;8.90;49.50;;;;;;4994414;28;20766;-68
2023/10/30 03:59:17;;;;;;;5.13;4.60;;;9.00;51.50;;;;;;4994291;28;20210;-69
2023/10/30 04:01:43;;;;;;;5.83;4.50;;;9.00;50.20;;;;;;4992563;28;20187;-68
2023/10/30 04:04:08;;;;;;;8.33;6.33;;;8.90;50.90;;;;;;4993794;28;20422;-69
2023/10/30 04:06:37;;;;;;;11.30;6.77;;;8.90;49.90;;;;;;4993885;28;20258;-69
2023/10/30 04:09:06;;;;;;;10.27;7.63;;;8.90;49.50;;;;;;4993967;28;20592;-68
2023/10/30 04:11:32;;;;;;;11.70;7.50;;;8.90;49.70;;;;;;4993637;28;20449;-69
2023/10/30 04:13:57;;;;;;;12.60;7.53;;;8.80;49.30;;;;;;4994157;28;20853;-69
2023/10/30 04:16:23;;;;;;;12.03;7.70;;;8.70;50.30;;;;;;4994254;28;20466;-68
2023/10/30 04:18:48;;;;;;;12.40;8.40;;;8.70;51.20;;;;;;4993744;28;20242;-68
2023/10/30 04:21:14;;;;;;;11.77;10.33;;;8.70;51.30;;;;;;4993625;28;20211;-68
2023/10/30 04:23:42;;;;;;;8.70;7.80;;;8.70;51.30;;;;;;4993674;28;20195;-68
2023/10/30 04:26:08;;;;;;;11.83;9.23;;;;;;;;;;4993296;28;20219;-68
2023/10/30 04:28:34;;;;;;;10.97;8.00;;;;;;;;;;5008765;28;20541;-68
2023/10/30 04:31:00;;;;;;;11.47;9.13;;;;;;;;;;4993664;28;20423;-68
2023/10/30 04:33:26;;;;;;;11.50;7.13;;;8.80;51.40;;;;;;4993957;28;20463;-68
2023/10/30 04:35:53;;;;;;;7.90;6.57;;;8.90;55.40;;;;;;4993736;28;20453;-68
2023/10/30 04:38:18;;;;;;;10.07;6.47;;;9.00;54.70;;;;;;4993365;28;20202;-68
2023/10/30 04:40:44;;;;;;;8.50;5.57;;;9.10;55.00;;;;;;4993615;28;20413;-68
2023/10/30 04:43:09;;;;;;;13.30;7.33;;;9.10;55.20;;;;;;4993254;28;20211;-68
2023/10/30 04:45:35;;;;;;;8.80;6.50;;;9.20;54.30;;;;;;4991901;28;20212;-68
2023/10/30 04:48:00;;;;;;;7.30;6.37;;;9.20;52.90;;;;;;4993708;28;20199;-68
2023/10/30 04:50:26;;;;;;;9.90;6.80;;;9.10;51.60;;;;;;4994711;28;20188;-69
2023/10/30 04:52:51;;;;;;;7.77;6.73;;;9.10;51.60;;;;;;4994871;28;20215;-68
2023/10/30 04:55:17;;;;;;;8.23;5.67;;;9.10;49.80;;;;;;4995247;28;20637;-69
2023/10/30 04:57:43;;;;;;;9.10;6.50;;;9.10;50.90;;;;;;4993664;28;20176;-68
2023/10/30 05:00:09;;;;;;;8.07;6.60;;;9.20;51.70;;;;;;4993215;28;20569;-69
2023/10/30 05:02:34;;;;;;;10.30;7.87;;;9.20;51.50;;;;;;4993323;28;20207;-69
2023/10/30 05:05:00;;;;;;;8.57;5.93;;;9.20;51.70;;;;;;4992840;28;20451;-68
2023/10/30 05:07:25;;;;;;;9.10;6.50;;;9.20;51.60;;;;;;4992929;28;20183;-68
2023/10/30 05:09:51;;;;;;;9.03;7.20;;;9.20;50.60;;;;;;4992541;28;20227;-68
2023/10/30 05:12:16;;;;;;;9.17;6.20;;;9.20;51.00;;;;;;4991891;28;20208;-69
2023/10/30 05:14:42;;;;;;;8.00;6.10;;;9.20;51.40;;;;;;4992891;28;20260;-69
2023/10/30 05:17:07;;;;;;;13.00;7.50;;;9.10;49.90;;;;;;4992778;28;20648;-69
2023/10/30 05:19:33;;;;;;;11.23;7.53;;;9.10;50.70;;;;;;4993066;28;20244;-69
2023/10/30 05:21:59;;;;;;;10.43;8.07;;;9.10;49.60;;;;;;4991805;28;20212;-69
2023/10/30 05:24:24;;;;;;;11.43;9.20;;;9.10;50.80;;;;;;4992871;28;20183;-69
2023/10/30 05:26:52;;;;;;;12.40;9.30;;;9.10;51.60;;;;;;4993127;28;20186;-68
2023/10/30 05:29:18;;;;;;;12.73;9.53;;;9.10;50.90;;;;;;4991463;28;20833;-68
2023/10/30 05:31:43;;;;;;;12.83;9.97;;;9.10;51.60;;;;;;4992489;28;20416;-68
2023/10/30 05:34:09;;;;;;;14.77;10.37;;;9.20;51.10;;;;;;4992670;28;20556;-68
2023/10/30 05:36:34;;;;;;;13.10;10.00;;;9.20;51.10;;;;;;4992848;28;20180;-71
2023/10/30 05:39:00;;;;;;;12.53;10.73;;;9.20;51.00;;;;;;4992708;28;20330;-70
2023/10/30 05:41:26;;;;;;;13.00;10.10;;;9.20;51.10;;;;;;4992341;28;20581;-68
2023/10/30 05:43:52;;;;;;;11.70;9.87;;;9.10;51.60;;;;;;4991385;28;20190;-68
2023/10/30 05:46:18;;;;;;;12.63;9.80;;;9.10;49.70;;;;;;4991335;28;20233;-68
2023/10/30 05:48:44;;;;;;;10.60;9.10;;;9.10;51.60;;;;;;4991122;28;21031;-68
2023/10/30 05:51:10;;;;;;;11.23;9.37;;;9.00;50.00;;;;;;4993595;28;20205;-68
2023/10/30 05:53:36;;;;;;;13.30;9.80;;;9.00;51.50;;;;;;4996866;28;20458;-68
2023/10/30 05:56:01;;;;;;;13.77;9.37;;;9.00;51.50;;;;;;4996741;28;20422;-69
2023/10/30 05:58:27;;;;;;;11.83;10.30;;;9.00;50.60;;;;;;4996440;28;20196;-69
2023/10/30 06:00:52;;;;;;;14.73;11.60;;;9.00;51.50;;;;;;4996669;28;20179;-69
2023/10/30 06:03:18;;;;;;;14.50;10.07;;;9.00;51.50;;;;;;4994985;28;20674;-69
2023/10/30 06:05:44;;;;;;;14.93;11.27;;;9.00;50.60;;;;;;4996537;28;20179;-69
2023/10/30 06:08:10;;;;;;;14.47;10.37;;;8.90;50.20;;;;;;4996242;28;20214;-69
2023/10/30 06:10:37;;;;;;;14.10;10.70;;;9.00;51.50;;;;;;4996341;28;20449;-69
2023/10/30 06:13:03;;;;;;;15.63;11.80;;;9.00;51.50;;;;;;4996382;28;20472;-69
2023/10/30 06:15:28;;;;;;;13.17;11.70;;;9.00;51.50;;;;;;4994732;28;20852;-68
2023/10/30 06:17:54;;;;;;;14.03;10.70;;;9.10;50.90;;;;;;4996009;28;20202;-67
2023/10/30 06:20:19;;;;;;;13.70;10.40;;;9.10;50.50;;;;;;4995568;28;20188;-68
2023/10/30 06:22:45;;;;;;;16.40;13.37;;;9.00;51.50;;;;;;4996224;28;20612;-68
2023/10/30 06:25:10;;;;;;;15.97;12.53;;;9.10;51.60;;;;;;4995835;28;20551;-68
2023/10/30 06:27:37;;;;;;;14.43;12.07;;;9.20;51.60;;;;;;4995881;28;20176;-70
2023/10/30 06:30:04;;;;;;;15.03;12.83;;;9.20;50.40;;;;;;4995710;28;20272;-68
2023/10/30 06:32:31;;;;;;;11.73;10.30;;;9.10;51.60;;;;;;4995629;28;20511;-68
2023/10/30 06:34:56;;;;;;;14.20;10.47;;;9.10;51.60;;;;;;4995657;28;20414;-69
2023/10/30 06:37:22;;;;;;;14.30;10.50;;;9.20;51.70;;;;;;4995768;28;20843;-71
2023/10/30 06:39:47;;;;;;;12.67;10.57;;;9.20;51.40;;;;;;4995602;28;20198;-69
2023/10/30 06:42:13;;;;;;;11.80;9.70;;;9.20;51.60;;;;;;4994499;28;20199;-68
2023/10/30 06:44:39;;;;;;;12.43;9.67;;;9.40;52.50;;;;;;4995878;28;20679;-69
2023/10/30 06:47:04;;;;;;;9.63;8.30;;;9.50;53.50;;;;;;4995803;28;20179;-68
2023/10/30 06:49:30;;;;;;;10.70;8.50;;;9.70;53.50;;;;;;4993783;28;20196;-68
2023/10/30 06:51:56;;;;;;;11.50;8.57;;;9.90;52.80;;;;;;4995974;28;20419;-69
2023/10/30 06:54:21;;;;;;;14.07;8.40;;;10.10;49.40;;;;;;4995584;28;20470;-68
2023/10/30 06:56:47;;;;;;;10.13;7.97;;;10.20;46.80;;;;;;4995662;28;20187;-70
2023/10/30 06:59:14;;;;;;;7.10;5.87;;;10.40;42.80;;;;;;4995155;28;20262;-71
2023/10/30 07:01:43;;;;;;;8.10;7.30;;;10.50;42.30;;;;;;4994347;28;20183;-68
2023/10/30 07:04:10;;;;;;;7.90;7.07;;;10.60;40.90;;;;;;4995354;28;20897;-68
2023/10/30 07:06:37;;;;;;;10.53;6.60;;;10.60;40.00;;;;;;4993991;28;20457;-69
2023/10/30 07:09:05;;;;;;;7.40;5.30;;;10.70;38.10;;;;;;5029378;23;20490;-69
2023/10/30 07:11:31;;;;;;;5.63;4.40;;;10.80;36.90;;;;;;5013483;28;20482;-69
2023/10/30 07:13:58;;;;;;;5.57;4.63;;;10.90;34.30;;;;;;5014061;28;20813;-69
2023/10/30 07:16:24;;;;;;;4.23;3.73;;;11.00;32.90;;;;;;5013703;28;20179;-69
2023/10/30 07:18:50;;;;;;;8.03;4.40;;;11.20;32.00;;;;;;5008859;28;20431;-69
2023/10/30 07:21:15;;;;;;;7.53;3.90;;;11.30;30.50;;;;;;4992516;28;20428;-70
2023/10/30 07:23:41;;;;;;;5.10;3.60;;;11.30;29.50;;;;;;4994043;28;20548;-69
2023/10/30 07:26:07;;;;;;;6.60;4.27;;;11.50;28.80;;;;;;4994518;28;20187;-69
2023/10/30 07:28:32;;;;;;;5.27;4.10;;;11.60;27.80;;;;;;4993738;28;20204;-69
2023/10/30 07:30:58;;;;;;;3.77;3.37;;;11.70;27.00;;;;;;4993688;28;20288;-70
2023/10/30 07:33:23;;;;;;;4.50;3.43;;;11.70;26.50;;;;;;4993638;28;20234;-69
2023/10/30 07:35:53;;;;;;;4.40;3.80;;;11.80;25.50;;;;;;4993644;28;20176;-69
2023/10/30 07:38:18;;;;;;;5.63;3.40;;;11.90;24.60;;;;;;4994350;28;20572;-70
2023/10/30 07:40:44;;;;;;;4.27;3.17;;;11.90;24.30;;;;;;4993505;28;20410;-69
2023/10/30 07:43:09;;;;;;;3.87;3.07;;;12.00;24.00;;;;;;4993629;28;20229;-70
2023/10/30 07:45:40;;;;;;;3.50;2.57;;;12.10;24.00;;;;;;4993754;28;20626;-69
2023/10/30 07:48:06;;;;;;;4.20;2.83;;;12.20;22.50;;;;;;4993512;28;20193;-69
2023/10/30 07:50:32;;;;;;;4.13;2.60;;;12.30;21.30;;;;;;4993356;28;20404;-69
2023/10/30 07:52:58;;;;;;;3.07;2.30;;;12.50;20.40;;;;;;4993634;28;20524;-69
2023/10/30 07:55:24;;;;;;;2.67;2.00;;;12.60;19.70;;;;;;4993658;28;20583;-70
2023/10/30 07:57:50;;;;;;;2.80;2.30;;;12.70;18.50;;;;;;4993483;28;20527;-69
2023/10/30 08:00:16;;;;;;;4.23;2.60;;;12.90;17.40;;;;;;4992969;28;20169;-70
2023/10/30 08:02:42;;;;;;;3.00;2.20;;;13.00;16.10;;;;;;4993592;28;20662;-69
2023/10/30 08:05:08;;;;;;;4.20;2.27;;;13.10;16.10;;;;;;4993323;28;20503;-69
2023/10/30 08:07:36;;;;;;;4.23;1.93;;;13.20;15.20;;;;;;4993161;28;20964;-70
2023/10/30 08:10:02;;;;;;;2.77;2.03;;;13.30;14.80;;;;;;4992763;28;20527;-69
2023/10/30 08:12:28;;;;;;;3.53;1.93;;;13.40;13.70;;;;;;5007691;28;20428;-70
2023/10/30 08:14:54;;;;;;;2.87;1.80;;;;;;;;;;4992840;28;20441;-69
2023/10/30 08:17:20;;;;;;;3.87;2.13;;;;;;;;;;4993125;28;20582;-69
2023/10/30 08:19:47;;;;;;;2.57;1.57;;;;;;;;;;4993136;28;20434;-70
2023/10/30 08:22:13;;;;;;;3.27;1.73;;;;;;;;;;4991811;28;20426;-69
2023/10/30 08:24:38;;;;;;;3.20;1.63;;;;;;;;;;4993101;28;20446;-69
2023/10/30 08:27:04;;;;;;;2.43;1.33;;;;;;;;;;4993112;28;20482;-69
2023/10/30 08:29:30;;;;;;;2.90;1.60;;;;;;;;;;4992863;28;20474;-70
2023/10/30 08:31:56;;;;;;;3.90;1.30;;;;;;;;;;4992994;28;20848;-69
2023/10/30 08:34:22;;;;;;;4.57;1.70;;;;;;;;;;4992954;28;20883;-70
2023/10/30 08:36:48;;;;;;;4.20;1.73;;;;;;;;;;4992915;28;20424;-69
2023/10/30 08:39:14;;;;;;;3.70;1.70;;;;;;;;;;4992745;28;20432;-69
2023/10/30 08:41:40;;;;;;;2.73;1.67;;;;;;;;;;4992660;28;20444;-69
2023/10/30 08:44:06;;;;;;;2.20;1.47;;;;;;;;;;4992818;28;20462;-69
2023/10/30 08:46:33;;;;;;;3.00;1.63;;;14.30;31.90;;;;;;4992777;28;20419;-69
2023/10/30 08:48:59;;;;;;;3.60;1.90;;;;;;;;;;4992605;28;20766;-69
2023/10/30 08:51:25;;;;;;;9.33;2.10;;;;;;;;;;4992462;28;20929;-70
2023/10/30 08:53:51;;;;;;;3.80;1.50;;;;;;;;;;4992401;28;20543;-69
2023/10/30 08:56:18;;;;;;;2.47;1.67;;;;;;;;;;4992671;28;20416;-69
2023/10/30 08:58:45;;;;;;;3.43;2.07;;;;;;;;;;4992335;28;20933;-69
2023/10/30 09:01:11;;;;;;;4.33;1.60;;;;;;;;;;4992295;28;20424;-69
2023/10/30 09:03:36;;;;;;;5.77;1.77;;;;;;;;;;4992473;28;20470;-69
2023/10/30 09:06:02;;;;;;;2.60;1.53;;;;;;;;;;4992679;28;20450;-69
2023/10/30 09:08:28;;;;;;;3.30;2.63;;;;;;;;;;4992254;28;20525;-69
2023/10/30 09:10:54;;;;;;;3.07;1.50;;;;;;;;;;4992345;28;20430;-69
2023/10/30 09:13:20;;;;;;;4.63;1.20;;;;;;;;;;4992195;28;20888;-69
2023/10/30 09:15:46;;;;;;;3.00;1.20;;;;;;;;;;4992290;28;20896;-69
2023/10/30 09:18:12;;;;;;;2.40;1.43;;;;;;;;;;4992067;28;20450;-69
2023/10/30 09:20:38;;;;;;;2.90;1.57;;;;;;;;;;4991812;28;20846;-69
2023/10/30 09:23:04;;;;;;;5.20;1.73;;;15.10;23.40;;;;;;4992126;28;20416;-69
2023/10/30 09:25:29;;;;;;;2.10;1.10;;;15.20;23.70;;;;;;4991696;28;20427;-69
2023/10/30 09:27:55;;;;;;;2.00;0.90;;;15.20;22.90;;;;;;4991718;28;20188;-69
2023/10/30 09:30:27;;;;;;;2.77;1.63;;;15.30;22.80;;;;;;4991965;28;20188;-69
2023/10/30 09:32:53;;;;;;;2.80;1.43;;;15.40;22.40;;;;;;4992022;28;20200;-69
2023/10/30 09:35:18;;;;;;;2.87;1.30;;;15.50;21.40;;;;;;4991991;28;20419;-69
2023/10/30 09:37:44;;;;;;;2.73;1.17;;;15.60;21.70;;;;;;4992017;28;20188;-69
2023/10/30 09:40:11;;;;;;;2.50;1.50;;;15.60;20.80;;;;;;4991758;28;20203;-70
2023/10/30 09:42:48;;;;;;;2.57;1.40;;;15.70;21.30;;;;;;4990575;28;20180;-69
2023/10/30 09:45:15;;;;;;;2.30;1.30;;;;;;;;;;4992090;28;20426;-69
2023/10/30 09:47:41;;;;;;;3.10;1.40;;;;;;;;;;4991895;28;20785;-69
2023/10/30 09:50:08;;;;;;;2.10;1.07;;;15.80;20.60;;;;;;4991691;28;20439;-69
2023/10/30 09:52:35;;;;;;;2.40;1.50;;;16.00;18.70;;;;;;4990517;28;20463;-69
2023/10/30 09:55:06;;;;;;;2.57;1.30;;;16.10;19.20;;;;;;4991698;28;20511;-70
2023/10/30 09:57:32;;;;;;;2.10;0.73;;;16.20;18.30;;;;;;4991905;28;20536;-69
2023/10/30 09:59:59;;;;;;;3.03;1.40;;;16.40;17.40;;;;;;4991625;28;20448;-69
2023/10/30 10:02:24;;;;;;;3.17;1.37;;;16.40;16.80;;;;;;4991926;28;20444;-69
2023/10/30 10:04:50;;;;;;;3.50;1.23;;;16.50;16.60;;;;;;4991873;28;20439;-70
2023/10/30 10:07:17;;;;;;;5.77;1.40;;;16.30;16.80;;;;;;4992085;28;20183;-69
2023/10/30 10:10:00;;;;;;;2.97;1.53;;;16.50;16.60;;;;;;4991455;28;20219;-69
2023/10/30 10:12:26;;;;;;;4.27;1.90;;;16.50;16.90;;;;;;4991643;28;20423;-70
2023/10/30 10:14:51;;;;;;;2.60;1.30;;;16.60;16.80;;;;;;4991654;28;20432;-69
2023/10/30 10:17:17;;;;;;;3.10;1.33;;;16.60;16.00;;;;;;4991935;28;20422;-69
2023/10/30 10:19:46;;;;;;;2.87;1.70;;;16.70;15.90;;;;;;4991365;28;20215;-69
2023/10/30 10:22:29;;;;;;;3.13;1.63;;;16.90;14.60;;;;;;4991476;28;20735;-69
2023/10/30 10:24:58;;;;;;;3.27;1.33;;;17.00;14.20;;;;;;4991549;28;20519;-69
2023/10/30 10:27:24;;;;;;;2.23;1.20;;;16.90;14.50;;;;;;4991753;28;20553;-69
2023/10/30 10:29:54;;;;;;;2.23;1.13;;;16.90;14.40;;;;;;4989982;28;20455;-69
2023/10/30 10:32:26;;;;;;;2.50;1.40;;;17.10;12.60;;;;;;4991555;28;20177;-69
2023/10/30 10:35:07;;;;;;;2.43;1.53;;;17.20;11.50;;;;;;4991578;28;20940;-69
2023/10/30 10:37:33;;;;;;;2.90;1.70;;;17.10;11.10;;;;;;4994215;28;20514;-69
2023/10/30 10:40:00;;;;;;;4.23;1.80;;;16.80;11.70;;;;;;4994671;28;20415;-70
2023/10/30 10:42:27;;;;;;;10.03;2.57;;;16.80;12.20;;;;;;4995200;28;20843;-69
2023/10/30 10:44:55;;;;;;;2.80;1.70;;;16.70;11.90;;;;;;4995152;28;20404;-69
2023/10/30 10:47:22;;;;;;;3.53;1.57;;;16.70;12.10;;;;;;5010086;28;20462;-69
2023/10/30 10:49:48;;;;;;;4.43;1.90;;;16.70;11.40;;;;;;4994709;28;20443;-69
2023/10/30 10:52:15;;;;;;;3.33;1.50;;;16.70;10.90;;;;;;4994993;28;20407;-69
2023/10/30 10:54:54;;;;;;;2.30;1.20;;;16.60;11.60;;;;;;4995031;28;20455;-69
2023/10/30 10:57:20;;;;;;;2.20;1.40;;;16.60;11.80;;;;;;4995209;28;20779;-69
2023/10/30 10:59:58;;;;;;;3.93;1.87;;;16.70;12.20;;;;;;4994689;28;20455;-69
2023/10/30 11:02:31;;;;;;;2.30;1.40;;;16.80;11.10;;;;;;4995157;28;20495;-69
2023/10/30 11:04:58;;;;;;;3.20;2.63;;;16.80;12.30;;;;;;4995345;28;20415;-70
2023/10/30 11:07:37;;;;;;;2.43;1.47;;;16.90;11.80;;;;;;4995137;28;20876;-69
2023/10/30 11:10:11;;;;;;;3.30;1.87;;;17.10;10.80;;;;;;4994029;28;21002;-69
2023/10/30 11:13:11;;;;;;;3.07;1.83;;;17.20;10.20;;;;;;4994682;28;20422;-69
2023/10/30 11:15:46;;;;;;;2.63;1.53;;;17.10;10.80;;;;;;4994625;28;20833;-69
2023/10/30 11:18:16;;;;;;;2.70;1.50;;;17.10;11.10;;;;;;4994756;28;20436;-70
2023/10/30 11:20:43;;;;;;;2.37;1.43;;;17.40;10.30;;;;;;4994262;28;20412;-70
2023/10/30 11:23:09;;;;;;;4.73;1.63;;;17.40;9.30;;;;;;4994480;28;20416;-69
2023/10/30 11:25:41;;;;;;;2.77;1.70;;;17.30;9.40;;;;;;4994512;28;20411;-69
2023/10/30 11:28:07;;;;;;;3.40;1.87;;;17.20;9.70;;;;;;4995246;28;20443;-70
2023/10/30 11:30:41;;;;;;;2.90;1.57;;;17.10;10.10;;;;;;4994988;28;20416;-69
2023/10/30 11:33:20;;;;;;;2.73;1.60;;;17.00;10.00;;;;;;4995805;28;20469;-69
2023/10/30 11:36:10;;;;;;;3.10;1.20;;;16.80;9.90;;;;;;4994403;28;20412;-69
2023/10/30 11:38:56;;;;;;;2.30;1.50;;;16.70;9.80;;;;;;4994455;28;20496;-69
2023/10/30 11:41:24;;;;;;;2.90;1.30;;;16.70;9.80;;;;;;4994075;28;20412;-69
2023/10/30 11:43:50;;;;;;;2.77;1.67;;;16.80;9.40;;;;;;4994192;28;20785;-69
2023/10/30 11:46:21;;;;;;;2.00;1.30;;;16.80;9.90;;;;;;4994351;28;20994;-69
2023/10/30 11:48:48;;;;;;;2.77;1.67;;;16.80;9.90;;;;;;4993714;28;20432;-69
2023/10/30 11:51:14;;;;;;;2.60;1.70;;;17.10;8.90;;;;;;4993894;28;20839;-70
2023/10/30 11:53:42;;;;;;;2.03;1.13;;;17.30;8.80;;;;;;4993955;28;20447;-69
2023/10/30 11:56:08;;;;;;;4.47;2.80;;;17.60;9.80;;;;;;4993703;28;20641;-69
2023/10/30 11:58:34;;;;;;;4.50;2.13;;;17.90;9.90;;;;;;4993614;28;20810;-70
2023/10/30 12:01:01;;;;;;;3.33;1.60;;;18.20;10.40;;;;;;4993584;28;20412;-70
2023/10/30 12:03:26;;;;;;;2.40;1.57;;;18.10;8.50;;;;;;4993960;28;20712;-69
2023/10/30 12:05:53;;;;;;;2.30;1.57;;;18.00;8.80;;;;;;4993824;28;20412;-69
2023/10/30 12:08:18;;;;;;;3.80;1.90;;;18.00;8.10;;;;;;4993656;28;20209;-69
2023/10/30 12:10:48;;;;;;;2.00;1.37;;;17.90;8.20;;;;;;4993469;28;20424;-69
2023/10/30 12:13:13;;;;;;;2.83;1.70;;;18.00;8.50;;;;;;4993756;28;20208;-69
2023/10/30 12:15:40;;;;;;;4.07;1.97;;;18.10;8.50;;;;;;4993693;28;20787;-69
2023/10/30 12:18:06;;;;;;;7.13;1.80;;;18.10;8.00;;;;;;4993219;28;20200;-69
2023/10/30 12:20:32;;;;;;;5.37;1.63;;;18.20;8.50;;;;;;4993365;28;20422;-70
2023/10/30 12:22:57;;;;;;;3.60;2.10;;;18.30;8.00;;;;;;4993544;28;20223;-69
2023/10/30 12:25:23;;;;;;;4.20;1.60;;;18.40;8.10;;;;;;4992112;28;20975;-69
2023/10/30 12:27:49;;;;;;;3.77;2.40;;;18.50;7.70;;;;;;4993406;28;20518;-69
2023/10/30 12:30:16;;;;;;;2.13;1.30;;;18.60;7.30;;;;;;4993212;28;20185;-69
2023/10/30 12:32:42;;;;;;;2.57;1.60;;;18.60;6.90;;;;;;4993268;28;20188;-70
2023/10/30 12:35:14;;;;;;;3.40;2.10;;;18.70;7.00;;;;;;4993274;28;20443;-69
2023/10/30 12:37:40;;;;;;;3.03;2.03;;;18.90;7.00;;;;;;4993105;28;20404;-69
2023/10/30 12:40:09;;;;;;;2.30;1.50;;;18.90;6.40;;;;;;4992862;28;20566;-69
2023/10/30 12:42:43;;;;;;;4.47;2.93;;;19.00;5.90;;;;;;4993651;28;20408;-69
2023/10/30 12:45:12;;;;;;;4.90;1.90;;;19.10;5.90;;;;;;4993187;28;20917;-69
2023/10/30 12:47:39;;;;;;;4.70;2.40;;;19.10;6.20;;;;;;4993079;28;20411;-70
2023/10/30 12:50:05;;;;;;;3.30;2.10;;;19.20;5.90;;;;;;4992514;28;20434;-69
2023/10/30 12:52:32;;;;;;;6.87;2.97;;;;;;;;;;4992681;28;20439;-69
2023/10/30 12:54:58;;;;;;;3.50;2.73;;;19.30;6.00;;;;;;4992804;28;20467;-69
2023/10/30 12:57:25;;;;;;;5.03;3.30;;;19.00;5.60;;;;;;4992997;28;20442;-69
2023/10/30 12:59:51;;;;;;;6.27;3.23;;;19.10;5.70;;;;;;4992073;28;20841;-69
2023/10/30 13:02:17;;;;;;;6.23;2.70;;;19.10;5.90;;;;;;4992896;28;20633;-69
2023/10/30 13:04:43;;;;;;;5.70;2.50;;;19.10;6.10;;;;;;4992676;28;20195;-69